Decatur, Indiana
Current Conditions -  °F | °C
As of 1:54 PM on Monday 20 Oct 2014 (Local Time) from KFWA Reporting Station
Overcast Overcast  
Wind Chill: 54°   Ceiling: 1600
Heat Index: 54°   Visibility: 10mi
Dew Point: 49°   Wind: 10mph
Humidity: 83%   Direction: 200°SSW
Pressure: 29.83"   Gusts: NA
Location:  40.83°N, 84.92°W
Report Text: KFWA 201754Z 20009KT 10SM BKN016 OVC022 12/09 A2983 RMK AO2 SLP104 60003 T01220094 10128 20100 58015
Loading
Personal Weather Stations






























Interactive Weather Map
Tropical Storm Tracking
New forecast layout! Learn more

10-Day Weather Forecast

Advertisements
Track Severe Weather on mobile